createdAt,value
2022-12-06T00:00:12.000Z,24.19
2022-12-06T00:02:42.075Z,24.13
2022-12-06T00:05:11.973Z,24.06
2022-12-06T00:07:42.411Z,24.05
2022-12-06T00:10:12.711Z,24.03
2022-12-06T00:12:42.651Z,23.98
2022-12-06T00:15:12.823Z,23.88
2022-12-06T00:17:43.240Z,23.82
2022-12-06T00:20:13.330Z,23.81
2022-12-06T00:22:47.135Z,23.79
2022-12-06T00:25:17.746Z,23.73
2022-12-06T00:27:47.898Z,23.71
2022-12-06T00:30:18.634Z,23.66
2022-12-06T00:32:49.056Z,23.66
2022-12-06T00:35:19.925Z,23.63
2022-12-06T00:37:50.055Z,23.58
2022-12-06T00:40:20.011Z,23.54
2022-12-06T00:42:50.176Z,23.52
2022-12-06T00:45:20.081Z,23.52
2022-12-06T00:47:49.996Z,23.48
2022-12-06T00:50:19.902Z,23.40
2022-12-06T00:52:50.066Z,23.40
2022-12-06T00:55:20.447Z,23.37
2022-12-06T00:57:50.806Z,23.35
2022-12-06T01:00:21.105Z,23.34
2022-12-06T01:02:51.050Z,23.25
2022-12-06T01:05:21.043Z,23.25
2022-12-06T01:07:51.423Z,23.22
2022-12-06T01:10:21.860Z,23.20
2022-12-06T01:12:51.973Z,23.17
2022-12-06T01:15:21.742Z,23.13
2022-12-06T01:17:51.510Z,23.10
2022-12-06T01:20:21.349Z,23.06
2022-12-06T01:22:51.369Z,23.06
2022-12-06T01:25:25.205Z,23.08
2022-12-06T01:27:56.204Z,23.06
2022-12-06T01:30:26.402Z,23.07
2022-12-06T01:32:57.290Z,23.04
2022-12-06T01:35:27.575Z,23.03
2022-12-06T01:37:59.455Z,23.04
2022-12-06T01:40:42.102Z,23.01
2022-12-06T01:43:32.507Z,22.90
2022-12-06T01:46:12.563Z,22.89
2022-12-06T01:48:43.197Z,22.86
2022-12-06T01:51:15.658Z,22.86
2022-12-06T01:53:47.477Z,22.86
2022-12-06T01:56:18.301Z,22.84
2022-12-06T01:58:49.831Z,22.80
2022-12-06T02:01:20.248Z,22.70
2022-12-06T02:03:50.442Z,22.72
2022-12-06T02:06:21.114Z,22.72
2022-12-06T02:08:52.937Z,22.73
2022-12-06T02:11:23.175Z,22.76
2022-12-06T02:13:53.777Z,22.84
2022-12-06T02:16:31.909Z,22.89
2022-12-06T02:19:04.616Z,22.94
2022-12-06T02:21:53.178Z,22.84
2022-12-06T02:24:44.747Z,22.73
2022-12-06T02:27:31.501Z,22.62
2022-12-06T02:30:19.655Z,22.60
2022-12-06T02:32:55.763Z,22.53
2022-12-06T02:36:10.119Z,22.55
2022-12-06T02:39:01.326Z,22.56
2022-12-06T02:42:03.504Z,22.56
2022-12-06T02:44:57.804Z,22.52
2022-12-06T02:47:37.806Z,22.52
2022-12-06T02:50:12.910Z,22.46
2022-12-06T02:52:46.759Z,22.42
2022-12-06T02:55:18.527Z,22.38
2022-12-06T02:57:51.917Z,22.35
2022-12-06T03:00:35.924Z,22.35
2022-12-06T03:03:33.623Z,22.33
2022-12-06T03:06:03.194Z,22.32
2022-12-06T03:09:06.057Z,22.28
2022-12-06T03:11:58.682Z,22.26
2022-12-06T03:14:34.388Z,22.22
2022-12-06T03:17:20.342Z,22.22
2022-12-06T03:19:57.794Z,22.21
2022-12-06T03:22:39.752Z,22.19
2022-12-06T03:25:12.268Z,22.16
2022-12-06T03:27:42.721Z,22.14
2022-12-06T03:30:15.725Z,22.08
2022-12-06T03:32:50.235Z,22.05
2022-12-06T03:35:27.804Z,22.02
2022-12-06T03:38:06.072Z,21.97
2022-12-06T03:40:39.505Z,21.94
2022-12-06T03:43:10.154Z,21.94
2022-12-06T03:46:03.604Z,22.00
2022-12-06T03:49:10.639Z,21.97
2022-12-06T03:51:42.269Z,21.98
2022-12-06T03:54:13.576Z,21.91
2022-12-06T03:56:43.994Z,21.85
2022-12-06T03:59:14.376Z,21.80
2022-12-06T04:01:44.156Z,21.83
2022-12-06T04:04:14.117Z,21.80
2022-12-06T04:06:43.892Z,21.78
2022-12-06T04:09:31.924Z,21.80
2022-12-06T04:12:02.510Z,21.73
2022-12-06T04:14:40.322Z,21.67
2022-12-06T04:17:28.910Z,21.71
2022-12-06T04:19:59.435Z,21.73
2022-12-06T04:22:47.887Z,21.65
2022-12-06T04:25:17.857Z,21.65
2022-12-06T04:28:26.180Z,21.58
2022-12-06T04:31:21.525Z,21.61
2022-12-06T04:34:11.762Z,21.56
2022-12-06T04:37:00.336Z,21.58
2022-12-06T04:39:30.547Z,21.57
2022-12-06T04:42:19.931Z,21.53
2022-12-06T04:44:50.658Z,21.51
2022-12-06T04:47:20.734Z,21.47
2022-12-06T04:49:50.489Z,21.44
2022-12-06T04:52:21.022Z,21.42
2022-12-06T04:54:50.998Z,21.43
2022-12-06T04:57:21.461Z,21.40
2022-12-06T04:59:52.234Z,21.39
2022-12-06T05:02:22.335Z,21.34
2022-12-06T05:04:52.507Z,21.36
2022-12-06T05:07:22.726Z,21.33
2022-12-06T05:09:52.465Z,21.30
2022-12-06T05:12:22.204Z,21.27
2022-12-06T05:14:51.927Z,21.22
2022-12-06T05:17:21.645Z,21.25
2022-12-06T05:19:51.465Z,21.25
2022-12-06T05:22:21.446Z,21.25
2022-12-06T05:24:52.911Z,21.22
2022-12-06T05:27:23.644Z,21.20
2022-12-06T05:29:53.453Z,21.20
2022-12-06T05:32:23.192Z,21.16
2022-12-06T05:34:53.358Z,21.15
2022-12-06T05:37:23.114Z,21.16
2022-12-06T05:39:53.069Z,21.10
2022-12-06T05:42:22.855Z,21.09
2022-12-06T05:44:52.636Z,21.12
2022-12-06T05:47:23.303Z,21.07
2022-12-06T05:49:53.212Z,21.06
2022-12-06T05:52:23.183Z,21.02
2022-12-06T05:54:53.150Z,21.02
2022-12-06T05:57:23.155Z,21.00
2022-12-06T05:59:52.884Z,20.99
2022-12-06T06:02:22.861Z,20.95
2022-12-06T06:04:54.266Z,20.85
2022-12-06T06:07:24.444Z,20.94
2022-12-06T06:09:54.438Z,20.94
2022-12-06T06:12:24.507Z,20.92
2022-12-06T06:14:54.380Z,20.88
2022-12-06T06:17:25.384Z,20.91
2022-12-06T06:19:55.573Z,20.94
2022-12-06T06:22:25.707Z,20.86
2022-12-06T06:24:56.364Z,20.86
2022-12-06T06:27:26.302Z,20.88
2022-12-06T06:29:56.077Z,20.89
2022-12-06T06:32:26.736Z,20.86
2022-12-06T06:34:56.829Z,20.79
2022-12-06T06:37:26.783Z,20.79
2022-12-06T06:39:56.627Z,20.81
2022-12-06T06:42:26.494Z,20.79
2022-12-06T06:44:56.653Z,20.81
2022-12-06T06:47:26.626Z,20.79
2022-12-06T06:49:57.418Z,20.78
2022-12-06T06:52:27.774Z,20.76
2022-12-06T06:54:57.541Z,20.75
2022-12-06T06:57:27.263Z,20.75
2022-12-06T06:59:57.710Z,20.69
2022-12-06T07:02:28.082Z,20.69
2022-12-06T07:04:57.899Z,20.67
2022-12-06T07:07:27.645Z,20.61
2022-12-06T07:09:57.535Z,20.58
2022-12-06T07:12:27.742Z,20.52
2022-12-06T07:14:57.713Z,20.48
2022-12-06T07:17:27.433Z,20.55
2022-12-06T07:19:57.586Z,20.55
2022-12-06T07:22:27.685Z,20.52
2022-12-06T07:24:57.800Z,20.55
2022-12-06T07:27:28.551Z,20.54
2022-12-06T07:29:58.757Z,20.48
2022-12-06T07:32:29.030Z,20.47
2022-12-06T07:34:59.117Z,20.44
2022-12-06T07:37:28.838Z,20.44
2022-12-06T07:39:59.091Z,20.48
2022-12-06T07:42:47.345Z,20.48
2022-12-06T07:45:17.819Z,20.40
2022-12-06T07:47:47.587Z,20.43
2022-12-06T07:50:20.152Z,20.47
2022-12-06T07:52:52.579Z,20.43
2022-12-06T07:55:22.844Z,20.41
2022-12-06T07:57:53.008Z,20.38
2022-12-06T08:00:23.092Z,20.38
2022-12-06T08:02:52.831Z,20.35
2022-12-06T08:05:22.816Z,20.30
2022-12-06T08:07:52.596Z,20.26
2022-12-06T08:10:22.653Z,20.20
2022-12-06T08:12:53.301Z,20.18
2022-12-06T08:15:23.303Z,20.23
2022-12-06T08:17:54.257Z,20.21
2022-12-06T08:20:24.286Z,20.20
2022-12-06T08:22:54.557Z,20.18
2022-12-06T08:25:24.576Z,20.21
2022-12-06T08:27:54.321Z,20.24
2022-12-06T08:30:24.119Z,20.26
2022-12-06T08:32:53.870Z,20.26
2022-12-06T08:35:23.869Z,20.34
2022-12-06T08:37:53.616Z,20.44
2022-12-06T08:40:23.796Z,20.45
2022-12-06T08:42:53.660Z,20.51
2022-12-06T08:45:23.655Z,20.54
2022-12-06T08:47:53.401Z,20.54
2022-12-06T08:50:23.221Z,20.57
2022-12-06T08:52:53.021Z,20.61
2022-12-06T08:55:22.889Z,20.84
2022-12-06T08:57:52.739Z,21.19
2022-12-06T09:00:23.537Z,21.51
2022-12-06T09:02:53.341Z,21.80
2022-12-06T09:05:23.083Z,22.08
2022-12-06T09:07:53.345Z,22.31
2022-12-06T09:10:23.134Z,22.52
2022-12-06T09:12:53.282Z,22.77
2022-12-06T09:15:23.060Z,22.97
2022-12-06T09:17:52.828Z,23.10
2022-12-06T09:20:22.623Z,23.32
2022-12-06T09:22:52.556Z,23.54
2022-12-06T09:25:22.962Z,23.69
2022-12-06T09:27:54.476Z,23.85
2022-12-06T09:30:24.798Z,24.12
2022-12-06T09:32:54.704Z,24.30
2022-12-06T09:35:25.334Z,24.56
2022-12-06T09:37:56.300Z,24.94
2022-12-06T09:40:39.946Z,25.04
2022-12-06T09:43:54.330Z,25.32
2022-12-06T09:47:05.619Z,25.69
2022-12-06T09:49:53.076Z,25.97
2022-12-06T09:52:24.217Z,26.20
2022-12-06T09:55:10.788Z,26.32
2022-12-06T09:57:56.988Z,26.65
2022-12-06T10:00:32.738Z,26.83
2022-12-06T10:03:17.813Z,27.31
2022-12-06T10:06:03.906Z,27.72
2022-12-06T10:09:00.689Z,27.91
2022-12-06T10:11:55.281Z,27.88
2022-12-06T10:14:46.749Z,28.27
2022-12-06T10:17:49.084Z,28.60
2022-12-06T10:20:40.325Z,28.97
2022-12-06T10:23:34.797Z,28.97
2022-12-06T10:26:23.074Z,29.12
2022-12-06T10:29:29.931Z,29.05
2022-12-06T10:32:21.057Z,29.51
2022-12-06T10:34:56.797Z,29.83
2022-12-06T10:37:44.398Z,29.65
2022-12-06T10:40:27.270Z,29.82
2022-12-06T10:43:10.771Z,30.55
2022-12-06T10:46:09.220Z,31.06
2022-12-06T10:49:18.664Z,31.71
2022-12-06T10:51:56.945Z,32.00
2022-12-06T10:54:44.889Z,32.17
2022-12-06T10:57:23.902Z,32.62
2022-12-06T11:00:16.816Z,32.77
2022-12-06T11:02:55.484Z,32.93
2022-12-06T11:05:34.173Z,32.89
2022-12-06T11:08:46.249Z,33.27
2022-12-06T11:11:20.489Z,33.11
2022-12-06T11:14:16.514Z,33.27
2022-12-06T11:16:57.647Z,33.88
2022-12-06T11:19:40.096Z,33.47
2022-12-06T11:22:11.926Z,33.37
2022-12-06T11:25:01.859Z,33.88
2022-12-06T11:27:37.925Z,34.10
2022-12-06T11:30:25.756Z,34.90
2022-12-06T11:32:56.732Z,34.98
2022-12-06T11:35:29.250Z,35.10
2022-12-06T11:38:06.366Z,34.71
2022-12-06T11:40:43.754Z,35.04
2022-12-06T11:43:36.980Z,35.41
2022-12-06T11:46:09.826Z,35.52
2022-12-06T11:48:40.082Z,35.78
2022-12-06T11:51:25.849Z,35.82
2022-12-06T11:54:09.622Z,35.65
2022-12-06T11:56:41.852Z,35.61
2022-12-06T11:59:30.070Z,36.00
2022-12-06T12:02:03.649Z,36.10
2022-12-06T12:04:34.181Z,36.30
2022-12-06T12:07:15.374Z,36.54
2022-12-06T12:09:53.001Z,37.07
2022-12-06T12:12:47.110Z,37.21
2022-12-06T12:15:21.114Z,35.78
2022-12-06T12:17:54.773Z,36.55
2022-12-06T12:20:35.427Z,37.23
2022-12-06T12:23:17.926Z,37.45
2022-12-06T12:26:01.512Z,37.69
2022-12-06T12:28:34.348Z,35.14
2022-12-06T12:31:21.298Z,33.95
2022-12-06T12:34:15.943Z,33.20
2022-12-06T12:36:53.165Z,32.22
2022-12-06T12:39:40.871Z,33.89
2022-12-06T12:42:35.974Z,36.15
2022-12-06T12:45:07.430Z,36.57
2022-12-06T12:47:38.243Z,36.37
2022-12-06T12:50:24.940Z,36.15
2022-12-06T12:52:55.304Z,37.42
2022-12-06T12:55:31.887Z,37.33
2022-12-06T12:58:03.156Z,35.07
2022-12-06T13:00:54.342Z,35.79
2022-12-06T13:06:30.112Z,38.20
2022-12-06T13:09:05.864Z,38.87
2022-12-06T13:11:44.906Z,38.99
2022-12-06T13:14:24.292Z,39.50
2022-12-06T13:16:57.746Z,39.27
2022-12-06T13:19:37.231Z,39.13
2022-12-06T13:22:09.016Z,39.06
2022-12-06T13:24:40.080Z,39.50
2022-12-06T13:27:17.789Z,40.59
2022-12-06T13:30:14.962Z,38.75
2022-12-06T13:32:56.589Z,36.99
2022-12-06T13:35:56.089Z,36.10
2022-12-06T13:38:31.767Z,37.52
2022-12-06T13:41:03.580Z,37.26
2022-12-06T13:43:38.098Z,39.09
2022-12-06T13:46:13.615Z,38.93
2022-12-06T13:48:57.299Z,39.97
2022-12-06T13:51:36.481Z,40.55
2022-12-06T13:54:06.786Z,40.00
2022-12-06T13:56:36.554Z,38.91
2022-12-06T13:59:26.105Z,38.17
2022-12-06T14:02:01.921Z,36.77
2022-12-06T14:09:38.172Z,37.35
2022-12-06T14:12:26.727Z,37.08
2022-12-06T14:15:02.183Z,35.66
2022-12-06T14:20:33.587Z,36.88
2022-12-06T14:23:03.965Z,36.20
2022-12-06T14:25:34.486Z,36.96
2022-12-06T14:28:14.027Z,36.17
2022-12-06T14:30:45.643Z,36.70
2022-12-06T14:33:25.931Z,38.95
2022-12-06T14:35:57.944Z,39.53
2022-12-06T14:38:32.799Z,38.79
2022-12-06T14:41:21.110Z,37.87
2022-12-06T14:43:51.795Z,38.93
2022-12-06T14:46:23.918Z,36.78
2022-12-06T14:49:12.494Z,35.61
2022-12-06T14:51:42.980Z,35.01
2022-12-06T14:54:33.128Z,34.91
2022-12-06T14:57:05.334Z,35.34
2022-12-06T15:02:29.160Z,39.07
2022-12-06T15:05:01.239Z,40.76
2022-12-06T15:07:43.686Z,41.52
2022-12-06T15:10:21.571Z,42.26
2022-12-06T15:12:57.875Z,40.05
2022-12-06T15:15:43.552Z,37.07
2022-12-06T15:18:39.259Z,35.99
2022-12-06T15:21:14.788Z,35.35
2022-12-06T15:23:51.758Z,38.61
2022-12-06T15:26:24.826Z,40.86
2022-12-06T15:28:55.503Z,39.26
2022-12-06T15:31:29.735Z,38.15
2022-12-06T15:34:00.086Z,36.57
2022-12-06T15:36:36.342Z,35.82
2022-12-06T15:39:06.816Z,35.19
2022-12-06T15:41:39.379Z,36.19
2022-12-06T15:44:18.632Z,39.87
2022-12-06T15:46:51.319Z,38.37
2022-12-06T15:49:24.606Z,36.95
2022-12-06T15:51:54.867Z,37.43
2022-12-06T15:54:27.731Z,38.55
2022-12-06T15:56:58.323Z,37.14
2022-12-06T15:59:28.595Z,36.82
2022-12-06T16:01:58.649Z,36.45
2022-12-06T16:04:31.731Z,35.93
2022-12-06T16:07:02.354Z,35.53
2022-12-06T16:09:32.705Z,35.15
2022-12-06T16:12:02.746Z,35.00
2022-12-06T16:14:32.798Z,35.12
2022-12-06T16:17:02.831Z,34.19
2022-12-06T16:19:51.469Z,33.47
2022-12-06T16:22:41.902Z,33.43
2022-12-06T16:25:12.215Z,35.97
2022-12-06T16:27:42.233Z,36.60
2022-12-06T16:30:12.648Z,38.72
2022-12-06T16:32:43.253Z,39.84
2022-12-06T16:35:13.863Z,40.53
2022-12-06T16:37:44.084Z,40.50
2022-12-06T16:40:22.935Z,41.03
2022-12-06T16:42:53.406Z,41.18
2022-12-06T16:45:23.865Z,41.78
2022-12-06T16:47:54.048Z,41.89
2022-12-06T16:50:28.024Z,41.24
2022-12-06T16:52:58.723Z,40.36
2022-12-06T16:55:29.113Z,39.91
2022-12-06T16:57:59.886Z,40.19
2022-12-06T17:00:30.395Z,39.03
2022-12-06T17:03:00.797Z,36.79
2022-12-06T17:05:31.397Z,37.36
2022-12-06T17:08:01.535Z,38.45
2022-12-06T17:10:31.584Z,39.53
2022-12-06T17:13:01.792Z,38.51
2022-12-06T17:15:32.312Z,36.85
2022-12-06T17:18:03.809Z,36.27
2022-12-06T17:20:34.158Z,36.00
2022-12-06T17:23:05.530Z,35.96
2022-12-06T17:25:36.092Z,35.68
2022-12-06T17:28:06.507Z,34.80
2022-12-06T17:30:36.591Z,34.37
2022-12-06T17:33:06.606Z,34.08
2022-12-06T17:35:38.199Z,33.92
2022-12-06T17:38:08.850Z,33.55
2022-12-06T17:40:39.079Z,33.31
2022-12-06T17:43:11.174Z,33.06
2022-12-06T17:45:41.424Z,32.80
2022-12-06T17:48:12.072Z,32.55
2022-12-06T17:50:42.512Z,32.29
2022-12-06T17:53:13.529Z,31.82
2022-12-06T17:55:43.819Z,31.33
2022-12-06T17:58:13.853Z,31.04
2022-12-06T18:00:44.153Z,30.69
2022-12-06T18:03:14.504Z,30.31
2022-12-06T18:05:46.189Z,29.36
2022-12-06T18:08:15.911Z,28.75
2022-12-06T18:10:45.931Z,28.32
2022-12-06T18:13:16.039Z,27.65
2022-12-06T18:15:46.506Z,27.27
2022-12-06T18:18:16.921Z,27.38
2022-12-06T18:20:47.129Z,28.12
2022-12-06T18:23:18.168Z,28.78
2022-12-06T18:25:48.642Z,29.89
2022-12-06T18:28:18.887Z,29.94
2022-12-06T18:30:49.050Z,29.76
2022-12-06T18:33:21.362Z,31.13
2022-12-06T18:35:54.199Z,31.73
2022-12-06T18:38:24.837Z,32.12
2022-12-06T18:40:55.067Z,30.41
2022-12-06T18:43:25.097Z,29.62
2022-12-06T18:46:06.844Z,28.93
2022-12-06T18:48:42.959Z,29.39
2022-12-06T18:51:18.234Z,29.19
2022-12-06T18:53:49.598Z,28.80
2022-12-06T18:56:22.167Z,29.08
2022-12-06T18:58:52.986Z,29.77
2022-12-06T19:01:26.246Z,29.97
2022-12-06T19:03:57.795Z,30.17
2022-12-06T19:06:30.888Z,30.57
2022-12-06T19:09:06.432Z,30.82
2022-12-06T19:11:52.498Z,31.50
2022-12-06T19:14:43.920Z,31.97
2022-12-06T19:17:14.465Z,32.33
2022-12-06T19:19:44.808Z,32.32
2022-12-06T19:22:15.377Z,32.27
2022-12-06T19:24:45.384Z,32.24
2022-12-06T19:27:18.479Z,32.24
2022-12-06T19:29:50.636Z,32.38
2022-12-06T19:32:22.205Z,32.28
2022-12-06T19:34:53.595Z,32.29
2022-12-06T19:37:23.932Z,32.35
2022-12-06T19:39:54.196Z,32.33
2022-12-06T19:42:42.560Z,32.25
2022-12-06T19:45:13.245Z,32.24
2022-12-06T19:47:43.757Z,32.15
2022-12-06T19:50:13.942Z,32.07
2022-12-06T19:52:43.945Z,32.05
2022-12-06T19:55:13.983Z,32.09
2022-12-06T19:57:46.830Z,32.09
2022-12-06T20:00:22.448Z,31.97
2022-12-06T20:02:53.099Z,31.82
2022-12-06T20:05:23.147Z,31.82
2022-12-06T20:07:53.551Z,31.74
2022-12-06T20:10:24.182Z,31.63
2022-12-06T20:12:54.600Z,31.63
2022-12-06T20:15:24.708Z,31.60
2022-12-06T20:17:55.941Z,31.59
2022-12-06T20:20:27.809Z,31.53
2022-12-06T20:22:58.798Z,31.44
2022-12-06T20:25:28.672Z,31.33
2022-12-06T20:28:03.434Z,31.27
2022-12-06T20:30:35.217Z,31.26
2022-12-06T20:33:05.451Z,31.19
2022-12-06T20:35:40.121Z,31.13
2022-12-06T20:38:10.212Z,31.10
2022-12-06T20:40:40.082Z,31.03
2022-12-06T20:43:10.386Z,30.96
2022-12-06T20:45:40.247Z,30.88
2022-12-06T20:48:10.710Z,30.86
2022-12-06T20:50:43.677Z,30.75
2022-12-06T20:53:14.785Z,30.61
2022-12-06T20:55:44.551Z,30.55
2022-12-06T20:58:14.329Z,30.42
2022-12-06T21:00:45.138Z,30.38
2022-12-06T21:03:16.594Z,30.23
2022-12-06T21:05:52.326Z,30.13
2022-12-06T21:08:25.272Z,29.92
2022-12-06T21:11:21.522Z,29.82
2022-12-06T21:13:47.319Z,29.70
2022-12-06T21:16:20.238Z,29.43
2022-12-06T21:18:55.129Z,29.26
2022-12-06T21:21:28.344Z,29.01
2022-12-06T21:24:01.495Z,28.80
2022-12-06T21:26:33.243Z,28.68
2022-12-06T21:29:04.033Z,28.54
2022-12-06T21:31:42.108Z,28.45
2022-12-06T21:34:13.808Z,28.32
2022-12-06T21:36:44.656Z,28.22
2022-12-06T21:39:16.250Z,28.12
2022-12-06T21:41:46.941Z,28.08
2022-12-06T21:44:16.915Z,27.99
2022-12-06T21:46:46.968Z,27.91
2022-12-06T21:49:17.141Z,27.81
2022-12-06T21:51:47.299Z,27.71
2022-12-06T21:54:17.122Z,27.57
2022-12-06T21:56:47.031Z,27.43
2022-12-06T21:59:16.961Z,27.27
2022-12-06T22:01:52.484Z,27.10
2022-12-06T22:04:22.909Z,27.11
2022-12-06T22:06:53.507Z,27.07
2022-12-06T22:09:23.572Z,26.90
2022-12-06T22:11:53.548Z,26.79
2022-12-06T22:14:23.329Z,26.71
2022-12-06T22:16:53.471Z,26.59
2022-12-06T22:19:24.439Z,26.41
2022-12-06T22:21:57.257Z,26.21
2022-12-06T22:24:27.290Z,26.16
2022-12-06T22:26:57.081Z,26.05
2022-12-06T22:29:27.865Z,25.96
2022-12-06T22:31:58.390Z,25.86
2022-12-06T22:34:28.708Z,25.86
2022-12-06T22:36:58.511Z,25.90
2022-12-06T22:39:29.010Z,25.84
2022-12-06T22:41:58.811Z,25.70
2022-12-06T22:44:28.606Z,25.62
2022-12-06T22:46:58.812Z,25.58
2022-12-06T22:49:28.742Z,25.50
2022-12-06T22:51:59.093Z,25.43
2022-12-06T22:54:28.972Z,25.42
2022-12-06T22:56:59.043Z,25.33
2022-12-06T22:59:28.868Z,25.25
2022-12-06T23:01:58.824Z,25.15
2022-12-06T23:04:28.698Z,25.15
2022-12-06T23:06:58.490Z,25.08
2022-12-06T23:09:28.316Z,24.99
2022-12-06T23:11:58.254Z,24.94
2022-12-06T23:14:28.025Z,24.91
2022-12-06T23:16:58.042Z,24.88
2022-12-06T23:19:27.876Z,24.88
2022-12-06T23:21:57.709Z,24.84
2022-12-06T23:24:27.519Z,24.80
2022-12-06T23:26:58.411Z,24.75
2022-12-06T23:29:28.614Z,24.68
2022-12-06T23:31:58.996Z,24.57
2022-12-06T23:34:29.289Z,24.49
2022-12-06T23:36:59.154Z,24.44
2022-12-06T23:39:30.193Z,24.40
2022-12-06T23:42:00.164Z,24.41
2022-12-06T23:44:30.397Z,24.31
2022-12-06T23:47:00.763Z,24.30
2022-12-06T23:49:30.578Z,24.30
2022-12-06T23:52:00.379Z,24.27
2022-12-06T23:54:30.319Z,24.21
2022-12-06T23:57:00.102Z,24.13
2022-12-06T23:59:30.192Z,24.06
